Time;durP1;ratioP1;P1;durP2;ratioP2;P2;SDS_P1;SDS_P2;PMS_P1;PMS_P2;Temp;Humidity;BMP_temperature;BMP_pressure;BME280_temperature;BME280_humidity;BME280_pressure;Samples;Min_cycle;Max_cycle;Signal;HPM_P1;HPM_P2
2021/10/19 00:02:07;;;;;;;35.90;21.27;;;;;;;4.80;77.89;101568.31;4845582;29;20034;-55
2021/10/19 00:04:32;;;;;;;33.97;20.80;;;;;;;4.77;78.25;101566.22;4845838;29;20028;-58
2021/10/19 00:06:58;;;;;;;35.15;20.63;;;;;;;4.72;77.99;101561.66;4845462;29;20158;-56
2021/10/19 00:09:23;;;;;;;35.45;20.48;;;;;;;4.69;77.69;101564.28;4845279;29;20034;-58
2021/10/19 00:11:48;;;;;;;35.88;20.40;;;;;;;4.65;78.17;101564.94;4845548;29;20041;-57
2021/10/19 00:14:14;;;;;;;33.47;21.95;;;;;;;4.63;78.69;101561.66;4845194;29;20034;-55
2021/10/19 00:16:39;;;;;;;35.05;22.40;;;;;;;4.61;78.21;101572.31;4845065;29;20037;-58
2021/10/19 00:19:04;;;;;;;35.20;21.75;;;;;;;4.59;78.55;101571.84;4845183;29;20053;-57
2021/10/19 00:21:31;;;;;;;37.55;21.00;;;;;;;4.57;78.03;101568.59;4845493;29;20033;-59
2021/10/19 00:23:56;;;;;;;33.75;21.15;;;;;;;4.57;78.10;101576.94;4829110;29;20053;-58
2021/10/19 00:26:21;;;;;;;38.47;21.08;;;;;;;4.55;78.05;101579.25;4845048;29;20057;-59
2021/10/19 00:28:47;;;;;;;40.92;22.13;;;;;;;4.54;77.84;101571.22;4845275;29;20038;-58
2021/10/19 00:31:12;;;;;;;35.80;21.75;;;;;;;4.51;77.71;101572.72;4844950;29;20037;-58
2021/10/19 00:33:38;;;;;;;38.40;21.40;;;;;;;4.48;78.36;101576.16;4843038;29;20113;-59
2021/10/19 00:36:03;;;;;;;33.50;21.23;;;;;;;4.45;78.02;101576.00;4844605;29;20041;-58
2021/10/19 00:38:29;;;;;;;37.08;21.00;;;;;;;4.42;78.27;101576.69;4844843;29;20053;-58
2021/10/19 00:40:54;;;;;;;38.20;21.02;;;;;;;4.39;78.34;101572.59;4844880;29;20109;-58
2021/10/19 00:43:26;;;;;;;39.13;23.17;;;;;;;4.35;78.89;101571.59;4849795;29;20013;-58
2021/10/19 00:45:55;;;;;;;39.38;22.02;;;;;;;4.31;78.51;101565.06;4830745;29;20030;-60
2021/10/19 00:48:28;;;;;;;41.28;23.90;;;;;;;4.32;78.37;101556.38;4847616;29;20033;-64
2021/10/19 00:50:54;;;;;;;;;;;;;;;4.31;78.49;101567.84;4845906;29;20090;-58
2021/10/19 00:53:20;;;;;;;50.35;27.17;;;;;;;4.27;77.93;101555.75;4844485;29;20262;-59
2021/10/19 00:55:46;;;;;;;52.67;26.27;;;;;;;4.22;78.53;101562.31;4848514;29;20026;-57
2021/10/19 00:58:11;;;;;;;49.22;29.27;;;;;;;4.19;78.72;101562.16;4846402;29;20062;-58
2021/10/19 01:00:37;;;;;;;49.92;27.58;;;;;;;4.16;78.52;101568.41;4844755;29;20029;-58
2021/10/19 01:03:12;;;;;;;51.63;28.30;;;;;;;4.13;78.77;101557.94;4845461;29;20034;-57
2021/10/19 01:05:38;;;;;;;56.25;30.52;;;;;;;4.12;78.74;101561.88;4815653;29;20139;-55
2021/10/19 01:08:04;;;;;;;57.35;30.30;;;;;;;4.11;78.86;101555.47;4849842;29;20116;-58
2021/10/19 01:10:29;;;;;;;56.25;29.33;;;;;;;4.08;78.60;101563.66;4849561;29;20022;-56
2021/10/19 01:13:06;;;;;;;60.90;31.33;;;;;;;4.04;78.52;101569.88;4851188;29;20033;-59
2021/10/19 01:15:33;;;;;;;52.90;29.75;;;;;;;4.02;78.58;101565.78;4835070;29;20065;-58
2021/10/19 01:18:07;;;;;;;47.88;27.88;;;;;;;4.02;78.84;101569.38;4847199;29;20062;-57
2021/10/19 01:20:36;;;;;;;52.03;29.25;;;;;;;4.08;78.94;101555.28;4847611;29;20068;-48
2021/10/19 01:23:03;;;;;;;56.65;30.10;;;;;;;4.09;78.93;101552.19;4844748;29;20053;-53
2021/10/19 01:25:32;;;;;;;53.13;28.73;;;;;;;4.11;78.63;101555.47;4845476;29;20029;-58
2021/10/19 01:28:04;;;;;;;54.22;30.38;;;;;;;4.08;78.13;101550.53;4846551;29;20029;-57
2021/10/19 01:30:58;;;;;;;51.67;28.83;;;;;;;4.04;78.22;101555.97;4846291;29;20033;-59
2021/10/19 01:33:25;;;;;;;56.90;30.77;;;;;;;4.03;78.69;101547.94;4842061;29;20567;-55
2021/10/19 01:35:51;;;;;;;55.55;27.30;;;;;;;4.07;79.04;101548.91;4844367;29;20026;-57
2021/10/19 01:38:20;;;;;;;50.35;28.75;;;;;;;4.11;78.66;101554.63;4845960;29;20026;-59
2021/10/19 01:40:46;;;;;;;50.95;28.55;;;;;;;4.12;78.64;101557.13;4825309;29;20381;-58
2021/10/19 01:43:13;;;;;;;51.88;28.20;;;;;;;4.11;78.68;101549.06;4844522;29;20022;-59
2021/10/19 01:45:39;;;;;;;53.90;29.20;;;;;;;4.10;78.54;101558.56;4844695;29;20081;-57
2021/10/19 01:48:05;;;;;;;51.97;28.92;;;;;;;4.08;78.51;101553.34;4843895;29;20367;-58
2021/10/19 01:50:31;;;;;;;50.17;26.83;;;;;;;4.04;78.42;101553.19;4844272;29;20346;-58
2021/10/19 01:52:57;;;;;;;48.85;26.88;;;;;;;4.01;78.57;101556.63;4844481;29;20037;-58
2021/10/19 01:55:34;;;;;;;46.80;27.52;;;;;;;3.99;78.68;101558.09;4847937;29;20036;-58
2021/10/19 01:58:02;;;;;;;49.40;27.05;;;;;;;4.00;78.82;101559.75;4845948;29;20323;-55
2021/10/19 02:00:27;;;;;;;43.03;25.30;;;;;;;3.98;78.48;101557.28;4844191;29;20022;-56
2021/10/19 02:02:52;;;;;;;48.40;27.20;;;;;;;3.95;78.56;101557.94;4844250;29;20170;-52
2021/10/19 02:05:18;;;;;;;49.72;27.63;;;;;;;3.93;78.05;101557.47;4843783;29;20071;-53
2021/10/19 02:07:43;;;;;;;48.15;26.05;;;;;;;3.96;79.06;101562.38;4845291;29;20022;-57
2021/10/19 02:10:10;;;;;;;44.42;26.45;;;;;;;3.99;78.87;101561.72;4846328;29;20030;-58
2021/10/19 02:12:36;;;;;;;42.08;25.10;;;;;;;4.02;78.78;101572.16;4853207;29;20053;-56
2021/10/19 02:15:03;;;;;;;45.13;26.75;;;;;;;4.07;78.42;101575.94;4847219;29;20072;-59
2021/10/19 02:17:28;;;;;;;47.47;26.80;;;;;;;4.09;78.57;101581.97;4847370;29;20037;-59
2021/10/19 02:19:53;;;;;;;42.70;26.83;;;;;;;4.09;78.33;101580.00;4847326;29;20129;-56
2021/10/19 02:22:19;;;;;;;44.05;25.50;;;;;;;4.09;78.26;101580.00;4847371;29;20022;-59
2021/10/19 02:24:44;;;;;;;39.20;24.52;;;;;;;4.10;77.80;101580.81;4847266;29;20422;-58
2021/10/19 02:27:10;;;;;;;47.13;25.60;;;;;;;4.04;77.75;101581.00;4847151;29;20390;-56
2021/10/19 02:29:35;;;;;;;48.63;26.70;;;;;;;3.95;78.40;101579.38;4847355;29;20026;-58
2021/10/19 02:32:01;;;;;;;40.13;25.20;;;;;;;3.88;78.52;101573.50;4847041;29;20022;-53
2021/10/19 02:34:26;;;;;;;42.38;25.10;;;;;;;3.82;78.74;101583.97;4846926;29;20026;-54
2021/10/19 02:36:52;;;;;;;45.35;25.95;;;;;;;3.78;78.63;101585.78;4847140;29;20041;-58
2021/10/19 02:39:17;;;;;;;46.58;26.08;;;;;;;3.76;79.10;101585.28;4846856;29;20109;-59
2021/10/19 02:41:43;;;;;;;50.70;26.58;;;;;;;3.80;79.23;101577.91;4846791;29;20034;-49
2021/10/19 02:44:09;;;;;;;47.95;27.33;;;;;;;3.84;79.25;101573.34;4846988;29;20154;-58
2021/10/19 02:46:34;;;;;;;43.67;24.02;;;;;;;3.84;79.39;101566.97;4847092;29;20041;-58
2021/10/19 02:49:02;;;;;;;44.55;26.20;;;;;;;3.77;79.34;101569.41;4846738;29;20040;-55
2021/10/19 02:51:27;;;;;;;41.30;25.38;;;;;;;3.72;79.37;101570.41;4830735;29;20089;-54
2021/10/19 02:53:54;;;;;;;49.97;27.80;;;;;;;3.68;79.30;101575.00;4847135;29;20022;-57
2021/10/19 02:56:20;;;;;;;50.70;27.67;;;;;;;3.68;79.53;101572.22;4846359;29;20034;-59
2021/10/19 02:58:49;;;;;;;44.80;25.63;;;;;;;3.68;79.75;101572.22;4850398;29;20042;-57
2021/10/19 03:01:15;;;;;;;42.50;25.45;;;;;;;3.73;79.34;101574.81;4849059;29;20037;-53
2021/10/19 03:03:41;;;;;;;43.08;24.92;;;;;;;3.72;79.30;101576.78;4846496;29;20322;-55
2021/10/19 03:06:07;;;;;;;42.83;24.10;;;;;;;3.66;78.97;101577.28;4847155;29;20017;-56
2021/10/19 03:08:32;;;;;;;46.75;26.38;;;;;;;3.60;78.89;101578.59;4846971;29;20368;-56
2021/10/19 03:10:58;;;;;;;49.65;27.38;;;;;;;3.57;78.50;101591.19;4846471;29;20112;-60
2021/10/19 03:13:24;;;;;;;43.13;25.52;;;;;;;3.55;79.27;101575.94;4846214;29;20041;-56
2021/10/19 03:15:50;;;;;;;41.13;24.73;;;;;;;3.56;78.94;101583.16;4846189;29;20034;-53
2021/10/19 03:18:15;;;;;;;43.53;25.45;;;;;;;3.52;79.26;101584.94;4846472;29;20323;-58
2021/10/19 03:20:41;;;;;;;47.63;28.60;;;;;;;3.50;79.27;101584.47;4846343;29;20036;-59
2021/10/19 03:23:06;;;;;;;51.85;29.10;;;;;;;3.48;79.10;101582.00;4846337;29;20033;-54
2021/10/19 03:25:32;;;;;;;57.42;31.00;;;;;;;3.46;79.57;101578.75;4846059;29;20026;-59
2021/10/19 03:28:00;;;;;;;54.13;30.02;;;;;;;3.47;79.34;101577.59;4846256;29;20052;-58
2021/10/19 03:30:25;;;;;;;47.42;28.70;;;;;;;3.53;79.86;101575.47;4845882;29;20104;-60
2021/10/19 03:32:51;;;;;;;50.72;28.90;;;;;;;3.55;79.34;101578.72;4847235;29;20052;-58
2021/10/19 03:35:17;;;;;;;51.42;27.30;;;;;;;3.55;79.39;101581.50;4846393;29;20138;-60
2021/10/19 03:37:43;;;;;;;49.67;28.80;;;;;;;3.57;79.65;101590.38;4846603;29;20034;-54
2021/10/19 03:40:09;;;;;;;49.03;28.63;;;;;;;3.57;79.26;101579.25;4830451;29;20053;-55
2021/10/19 03:42:38;;;;;;;51.53;27.45;;;;;;;3.63;79.46;101580.72;4845918;29;20130;-55
2021/10/19 03:45:04;;;;;;;51.60;27.77;;;;;;;3.67;79.25;101593.63;4826518;29;20109;-57
2021/10/19 03:47:30;;;;;;;50.13;25.77;;;;;;;3.68;79.51;101595.28;4838975;29;20113;-56
2021/10/19 03:49:55;;;;;;;54.08;26.52;;;;;;;3.73;79.00;101599.84;4845676;29;20436;-58
2021/10/19 03:52:21;;;;;;;47.67;27.20;;;;;;;3.77;78.93;101597.22;4842017;29;20053;-49
2021/10/19 03:54:46;;;;;;;52.33;27.98;;;;;;;3.77;78.57;101600.81;4845531;29;20025;-56
2021/10/19 03:57:11;;;;;;;51.15;28.13;;;;;;;3.78;78.52;101596.06;4839071;29;20048;-57
2021/10/19 03:59:37;;;;;;;44.15;26.42;;;;;;;3.79;78.83;101604.09;4845229;29;20036;-58
2021/10/19 04:02:02;;;;;;;38.42;21.38;;;;;;;3.81;78.76;101607.38;4845416;29;20034;-54
2021/10/19 04:04:27;;;;;;;32.90;20.90;;;;;;;3.80;78.85;101614.06;4845175;29;20112;-58
2021/10/19 04:06:54;;;;;;;32.33;21.13;;;;;;;3.76;78.27;101609.50;4845144;29;20026;-52
2021/10/19 04:09:19;;;;;;;33.10;21.45;;;;;;;3.66;77.87;101605.09;4845527;29;20034;-57
2021/10/19 04:11:44;;;;;;;36.92;21.83;;;;;;;3.62;78.48;101604.09;4845524;29;20029;-59
2021/10/19 04:14:10;;;;;;;40.17;23.20;;;;;;;3.60;78.80;101612.78;4844949;29;20327;-58
2021/10/19 04:16:35;;;;;;;35.10;22.55;;;;;;;3.64;78.82;101615.72;4844833;29;20351;-55
2021/10/19 04:19:01;;;;;;;39.63;21.80;;;;;;;3.66;79.16;101616.22;4845118;29;20057;-51
2021/10/19 04:21:27;;;;;;;32.03;20.00;;;;;;;3.68;78.63;101613.91;4829167;29;20033;-58
2021/10/19 04:23:52;;;;;;;40.05;22.58;;;;;;;3.60;78.56;101618.34;4844979;29;20034;-54
2021/10/19 04:26:18;;;;;;;39.50;21.88;;;;;;;3.54;79.14;101611.28;4845135;29;20438;-52
2021/10/19 04:28:45;;;;;;;38.53;23.23;;;;;;;3.52;79.29;101602.44;4845038;29;20129;-52
2021/10/19 04:31:11;;;;;;;40.83;23.27;;;;;;;3.56;79.53;101613.72;4843884;29;20525;-56
2021/10/19 04:33:37;;;;;;;40.00;23.63;;;;;;;3.58;79.29;101622.59;4844353;29;20043;-55
2021/10/19 04:36:04;;;;;;;40.78;26.20;;;;;;;3.52;79.27;101621.09;4845002;29;20034;-52
2021/10/19 04:38:31;;;;;;;44.58;26.80;;;;;;;3.48;79.64;101620.09;4828701;29;20109;-58
2021/10/19 04:40:57;;;;;;;47.95;26.08;;;;;;;3.46;79.65;101611.28;4844469;29;20048;-58
2021/10/19 04:43:22;;;;;;;46.33;26.23;;;;;;;3.51;79.92;101625.00;4844671;29;20022;-58
2021/10/19 04:45:48;;;;;;;51.20;28.08;;;;;;;3.51;79.55;101627.78;4844914;29;20410;-58
2021/10/19 04:48:14;;;;;;;45.45;28.95;;;;;;;3.48;79.76;101629.25;4844765;29;20026;-55
2021/10/19 04:50:40;;;;;;;47.15;28.45;;;;;;;3.49;79.40;101616.19;4828872;29;20022;-58
2021/10/19 04:53:09;;;;;;;52.88;29.52;;;;;;;3.47;79.51;101618.47;4844460;29;20656;-57
2021/10/19 04:55:34;;;;;;;62.10;28.55;;;;;;;3.49;79.43;101627.31;4834326;29;20335;-59
2021/10/19 04:57:59;;;;;;;52.72;28.95;;;;;;;3.50;79.22;101628.94;4832447;29;20069;-57
2021/10/19 05:00:25;;;;;;;57.60;30.67;;;;;;;3.53;79.12;101633.84;4833828;29;20030;-59
2021/10/19 05:02:50;;;;;;;78.35;32.55;;;;;;;3.54;78.84;101629.91;4811424;29;20049;-58
2021/10/19 05:05:17;;;;;;;61.53;31.55;;;;;;;3.53;79.11;101628.28;4843850;29;20053;-55
2021/10/19 05:07:43;;;;;;;81.45;33.58;;;;;;;3.51;78.73;101630.56;4843291;29;20057;-59
2021/10/19 05:10:09;;;;;;;86.88;36.65;;;;;;;3.50;79.02;101634.50;4844296;29;20434;-53
2021/10/19 05:12:35;;;;;;;72.22;32.30;;;;;;;3.47;78.76;101635.16;4844271;29;20376;-57
2021/10/19 05:15:01;;;;;;;69.75;31.88;;;;;;;3.47;78.55;101630.41;4825471;29;20050;-59
2021/10/19 05:17:26;;;;;;;72.90;32.85;;;;;;;3.40;78.66;101633.69;4853948;29;20081;-55
2021/10/19 05:19:52;;;;;;;69.97;31.38;;;;;;;3.36;78.66;101637.44;4844437;29;20406;-58
2021/10/19 05:22:17;;;;;;;80.15;32.60;;;;;;;3.36;79.18;101629.09;4844338;29;20075;-59
2021/10/19 05:24:43;;;;;;;79.72;36.08;;;;;;;3.35;79.14;101624.69;4844289;29;20101;-59
2021/10/19 05:27:08;;;;;;;72.70;37.38;;;;;;;3.35;79.14;101627.47;4844148;29;20030;-59
2021/10/19 05:29:34;;;;;;;82.07;37.95;;;;;;;3.37;79.19;101630.72;4844355;29;20053;-58
2021/10/19 05:31:59;;;;;;;69.45;36.05;;;;;;;3.36;79.06;101632.69;4844523;29;20028;-55
2021/10/19 05:34:25;;;;;;;64.63;34.45;;;;;;;3.36;79.50;101635.47;4828034;29;20478;-58
2021/10/19 05:36:50;;;;;;;67.82;35.08;;;;;;;3.39;79.34;101639.56;4844393;29;20030;-57
2021/10/19 05:39:17;;;;;;;59.80;32.10;;;;;;;3.44;79.59;101644.16;4844493;29;20292;-55
2021/10/19 05:41:42;;;;;;;68.93;33.83;;;;;;;3.48;79.71;101648.72;4843937;29;20034;-59
2021/10/19 05:44:08;;;;;;;52.00;29.67;;;;;;;3.52;79.91;101643.34;4845506;29;20429;-57
2021/10/19 05:46:34;;;;;;;45.60;27.75;;;;;;;3.57;79.86;101648.75;4828432;29;20427;-58
2021/10/19 05:48:59;;;;;;;48.70;28.98;;;;;;;3.60;79.59;101648.09;4839738;29;20034;-58
2021/10/19 05:51:25;;;;;;;51.38;31.13;;;;;;;3.65;79.70;101653.50;4847713;29;20036;-54
2021/10/19 05:53:50;;;;;;;60.45;33.60;;;;;;;3.74;80.48;101654.31;4847993;29;20154;-56
2021/10/19 05:56:16;;;;;;;107.80;63.80;;;;;;;3.87;80.78;101655.31;4847070;29;20431;-59
2021/10/19 05:58:41;;;;;;;100.53;63.03;;;;;;;3.99;80.61;101653.50;4847929;29;20109;-58
2021/10/19 06:01:07;;;;;;;65.93;42.40;;;;;;;4.15;80.74;101658.59;4847859;29;20029;-59
2021/10/19 06:03:32;;;;;;;56.63;36.85;;;;;;;4.32;80.44;101661.34;4847834;29;20030;-57
2021/10/19 06:05:58;;;;;;;62.80;37.63;;;;;;;4.51;80.69;101658.22;4847543;29;20304;-55
2021/10/19 06:08:23;;;;;;;63.55;41.80;;;;;;;4.71;80.76;101665.03;4847496;29;20072;-57
2021/10/19 06:10:49;;;;;;;59.33;40.95;;;;;;;4.85;80.89;101660.06;4847418;29;20030;-59
2021/10/19 06:13:14;;;;;;;67.72;46.45;;;;;;;5.05;81.07;101662.13;4847190;29;20034;-58
2021/10/19 06:15:40;;;;;;;53.67;37.50;;;;;;;5.24;80.76;101665.31;4847460;29;20022;-53
2021/10/19 06:18:06;;;;;;;59.42;39.45;;;;;;;5.42;80.40;101670.78;4847365;29;20061;-59
2021/10/19 06:20:32;;;;;;;56.92;39.47;;;;;;;5.59;79.82;101674.31;4847236;29;20041;-53
2021/10/19 06:22:57;;;;;;;54.47;33.35;;;;;;;5.81;80.32;101678.75;4847520;29;20034;-58
2021/10/19 06:25:23;;;;;;;48.28;31.50;;;;;;;6.04;80.12;101673.69;4846927;29;20419;-59
2021/10/19 06:27:48;;;;;;;45.63;29.38;;;;;;;6.25;79.22;101670.84;4847423;29;20025;-59
2021/10/19 06:30:14;;;;;;;45.63;27.67;;;;;;;6.48;78.86;101680.50;4847343;29;20034;-57
2021/10/19 06:32:40;;;;;;;47.75;29.10;;;;;;;6.71;78.72;101677.31;4847246;29;20109;-59
2021/10/19 06:35:08;;;;;;;42.63;27.92;;;;;;;6.96;78.33;101675.38;4847245;29;20385;-58
2021/10/19 06:37:33;;;;;;;49.75;30.33;;;;;;;7.18;77.80;101682.53;4847057;29;20030;-58
2021/10/19 06:39:59;;;;;;;46.53;29.70;;;;;;;7.41;77.64;101684.53;4846994;29;20074;-58
2021/10/19 06:42:24;;;;;;;60.92;33.05;;;;;;;7.69;77.54;101679.03;4847092;29;20030;-60
2021/10/19 06:44:50;;;;;;;54.03;30.38;;;;;;;7.89;76.70;101688.41;4846740;29;20061;-59
2021/10/19 06:47:15;;;;;;;45.53;28.02;;;;;;;8.09;75.86;101685.81;4847058;29;20109;-58
2021/10/19 06:49:41;;;;;;;45.72;27.83;;;;;;;8.30;74.96;101689.25;4846938;29;20546;-59
2021/10/19 06:52:06;;;;;;;44.03;25.40;;;;;;;8.55;75.08;101696.41;4827509;29;20411;-58
2021/10/19 06:54:31;;;;;;;36.35;24.40;;;;;;;8.79;74.26;101703.06;4842782;29;20334;-58
2021/10/19 06:56:57;;;;;;;47.88;25.10;;;;;;;9.02;73.87;101697.66;4846880;29;20037;-58
2021/10/19 06:59:22;;;;;;;39.47;25.25;;;;;;;9.18;73.86;101704.09;4846645;29;20484;-60
2021/10/19 07:01:47;;;;;;;44.03;25.15;;;;;;;9.43;73.32;101713.97;4846922;29;20062;-58
2021/10/19 07:04:13;;;;;;;37.63;24.65;;;;;;;9.68;73.13;101699.72;4846677;29;20423;-58
2021/10/19 07:06:38;;;;;;;41.70;25.10;;;;;;;9.97;72.01;101707.63;4846548;29;20045;-59
2021/10/19 07:09:03;;;;;;;36.80;24.35;;;;;;;10.24;71.57;101714.28;4846288;29;20034;-58
2021/10/19 07:11:33;;;;;;;39.47;26.00;;;;;;;10.52;71.45;101711.25;4846374;29;20038;-59
2021/10/19 07:13:58;;;;;;;36.92;25.10;;;;;;;10.79;70.10;101704.56;4846882;29;20029;-59
2021/10/19 07:16:23;;;;;;;43.53;25.40;;;;;;;11.07;70.61;101698.66;4846032;29;20158;-59
2021/10/19 07:18:49;;;;;;;40.83;24.92;;;;;;;11.29;69.10;101705.47;4846256;29;20343;-57
2021/10/19 07:21:14;;;;;;;35.47;22.63;;;;;;;11.53;69.43;101701.47;4846603;29;20110;-59
2021/10/19 07:23:40;;;;;;;39.47;23.63;;;;;;;11.74;69.17;101692.50;4845920;29;20029;-58
2021/10/19 07:26:05;;;;;;;34.00;22.60;;;;;;;11.96;69.24;101686.03;4846303;29;20025;-59
2021/10/19 07:28:30;;;;;;;34.78;22.20;;;;;;;12.11;68.23;101689.06;4846095;29;20026;-58
2021/10/19 07:30:56;;;;;;;37.75;23.77;;;;;;;12.16;66.19;101688.72;4846182;29;20029;-59
2021/10/19 07:33:21;;;;;;;35.15;22.83;;;;;;;12.31;67.03;101676.41;4846085;29;20070;-59
2021/10/19 07:35:47;;;;;;;39.83;23.85;;;;;;;12.37;66.10;101683.38;4846194;29;20032;-58
2021/10/19 07:38:13;;;;;;;40.55;24.92;;;;;;;12.42;66.20;101688.66;4845892;29;20030;-59
2021/10/19 07:40:38;;;;;;;40.38;25.35;;;;;;;12.49;66.13;101685.91;4845730;29;20334;-59
2021/10/19 07:43:04;;;;;;;35.67;24.50;;;;;;;12.66;66.82;101693.78;4845845;29;20022;-59
2021/10/19 07:45:30;;;;;;;40.13;23.33;;;;;;;12.84;66.29;101698.81;4845856;29;20037;-58
2021/10/19 07:47:59;;;;;;;36.67;22.95;;;;;;;12.99;66.27;101703.41;4845693;29;20570;-59
2021/10/19 07:50:29;;;;;;;35.17;22.45;;;;;;;13.14;65.56;101707.97;4845858;29;20439;-58
2021/10/19 07:52:54;;;;;;;38.75;22.08;;;;;;;13.35;65.08;101698.94;4845508;29;20359;-59
2021/10/19 07:55:20;;;;;;;33.25;21.45;;;;;;;13.47;64.36;101698.66;4845460;29;20034;-58
2021/10/19 07:57:48;;;;;;;35.78;20.73;;;;;;;13.62;64.45;101705.22;4845784;29;20118;-58
2021/10/19 08:00:15;;;;;;;35.17;19.92;;;;;;;13.75;63.88;101705.72;4845390;29;20372;-58
2021/10/19 08:02:44;;;;;;;30.50;20.88;;;;;;;13.77;62.33;101712.59;4845575;29;20327;-55
2021/10/19 08:05:14;;;;;;;34.08;20.98;;;;;;;13.76;62.85;101713.81;4845634;29;20021;-58
2021/10/19 08:07:44;;;;;;;29.90;19.77;;;;;;;13.87;63.27;101716.69;4844607;29;20036;-61
2021/10/19 08:10:13;;;;;;;28.15;19.42;;;;;;;13.98;63.53;101711.13;4845420;29;20364;-60
2021/10/19 08:12:38;;;;;;;31.58;20.10;;;;;;;14.01;62.35;101713.16;4845466;29;20026;-59
2021/10/19 08:15:04;;;;;;;33.25;20.48;;;;;;;14.08;63.07;101713.19;4845309;29;20041;-58
2021/10/19 08:17:30;;;;;;;40.13;20.23;;;;;;;14.15;63.45;101718.88;4845045;29;20365;-58
2021/10/19 08:19:59;;;;;;;34.33;19.50;;;;;;;14.25;63.31;101712.50;4845683;29;20116;-58
2021/10/19 08:22:29;;;;;;;39.55;19.98;;;;;;;14.35;62.11;101716.56;4845304;29;20652;-58
2021/10/19 08:24:55;;;;;;;26.63;17.67;;;;;;;14.42;62.21;101714.59;4845437;29;20033;-61
2021/10/19 08:27:23;;;;;;;31.13;18.63;;;;;;;14.47;62.13;101710.59;4845308;29;20017;-49
2021/10/19 08:29:49;;;;;;;27.67;18.10;;;;;;;14.55;61.74;101714.28;4845544;29;20029;-55
2021/10/19 08:32:14;;;;;;;25.90;17.08;;;;;;;14.61;62.32;101709.84;4844707;29;20030;-61
2021/10/19 08:34:39;;;;;;;27.05;16.48;;;;;;;14.67;61.27;101711.06;4845205;29;20033;-57
2021/10/19 08:37:05;;;;;;;31.23;17.70;;;;;;;14.67;60.51;101708.25;4826253;29;20030;-59
2021/10/19 08:39:30;;;;;;;34.13;18.27;;;;;;;14.66;60.11;101710.25;4844824;29;20058;-59
2021/10/19 08:41:55;;;;;;;36.22;20.77;;;;;;;14.68;60.51;101715.53;4844870;29;20030;-50
2021/10/19 08:44:21;;;;;;;29.73;17.67;;;;;;;14.72;61.07;101716.34;4844689;29;20073;-58
2021/10/19 08:46:46;;;;;;;23.95;15.32;;;;;;;14.78;59.74;101721.22;4844958;29;20414;-49
2021/10/19 08:49:12;;;;;;;21.20;14.15;;;;;;;14.81;59.09;101722.47;4844889;29;20426;-57
2021/10/19 08:51:40;;;;;;;23.45;14.15;;;;;;;14.81;58.80;101719.63;4844559;29;20101;-46
2021/10/19 08:54:09;;;;;;;27.23;15.18;;;;;;;14.88;59.60;101724.50;4845014;29;20075;-58
2021/10/19 08:56:41;;;;;;;20.45;12.77;;;;;;;14.96;58.95;101724.09;4844863;29;20014;-58
2021/10/19 08:59:07;;;;;;;23.58;11.63;;;;;;;15.05;57.75;101718.84;4844706;29;20034;-57
2021/10/19 09:01:38;;;;;;;20.13;11.57;;;;;;;15.19;57.53;101715.25;4844368;29;20045;-56
2021/10/19 09:04:14;;;;;;;20.33;13.15;;;;;;;15.32;56.75;101715.66;4844650;29;20040;-58
2021/10/19 09:06:42;;;;;;;17.88;12.25;;;;;;;15.43;57.32;101713.66;4844669;29;20065;-56
2021/10/19 09:09:13;;;;;;;21.55;13.85;;;;;;;15.54;56.23;101719.31;4844536;29;20030;-46
2021/10/19 09:11:47;;;;;;;21.85;12.75;;;;;;;15.57;56.26;101718.50;4844467;29;20494;-55
2021/10/19 09:14:14;;;;;;;14.98;10.35;;;;;;;15.61;56.12;101717.34;4844435;29;20247;-59
2021/10/19 09:16:41;;;;;;;18.88;10.50;;;;;;;15.64;55.33;101705.19;4844197;29;20026;-51
2021/10/19 09:19:07;;;;;;;16.40;9.20;;;;;;;15.71;54.90;101716.50;4829539;29;20058;-50
2021/10/19 09:21:33;;;;;;;13.38;8.32;;;;;;;15.82;53.97;101707.97;4844388;29;20033;-52
2021/10/19 09:24:17;;;;;;;14.45;8.90;;;;;;;15.89;53.27;101698.69;4850520;29;20122;-52
2021/10/19 09:26:59;;;;;;;13.75;8.93;;;;;;;15.92;52.96;101695.84;4850740;29;20037;-59
2021/10/19 09:29:27;;;;;;;13.05;7.43;;;;;;;15.98;53.37;101701.91;4850891;29;20026;-59
2021/10/19 09:31:54;;;;;;;11.35;7.60;;;;;;;16.05;52.57;101691.34;4850720;29;20360;-46
2021/10/19 09:34:20;;;;;;;15.82;8.10;;;;;;;16.12;52.97;101689.69;4850371;29;20022;-52
2021/10/19 09:36:49;;;;;;;15.35;8.15;;;;;;;16.16;51.87;101691.31;4850539;29;20026;-60
2021/10/19 09:39:14;;;;;;;14.02;6.57;;;;;;;16.17;51.62;101692.94;4850603;29;20034;-47
2021/10/19 09:41:44;;;;;;;9.48;5.60;;;;;;;16.18;50.04;101688.06;4850252;29;20106;-56
2021/10/19 09:44:14;;;;;;;11.75;6.05;;;;;;;16.20;50.37;101692.13;4850838;29;20033;-60
2021/10/19 09:46:41;;;;;;;9.82;5.45;;;;;;;16.21;49.97;101690.91;4850623;29;20033;-52
2021/10/19 09:49:08;;;;;;;7.63;5.38;;;;;;;16.22;50.13;101686.84;4850193;29;20036;-59
2021/10/19 09:51:37;;;;;;;9.27;5.20;;;;;;;16.27;48.76;101688.44;4850163;29;20060;-56
2021/10/19 09:54:07;;;;;;;12.45;6.93;;;;;;;16.34;49.81;101688.41;4850461;29;20482;-59
2021/10/19 09:56:34;;;;;;;15.05;6.20;;;;;;;16.41;50.18;101682.69;4833795;29;20472;-58
2021/10/19 09:58:59;;;;;;;9.27;5.90;;;;;;;16.45;48.34;101685.53;4850683;29;20033;-56
2021/10/19 10:01:25;;;;;;;17.38;6.68;;;;;;;16.43;49.04;101677.41;4850054;29;20319;-58
2021/10/19 10:03:52;;;;;;;11.45;6.68;;;;;;;16.45;49.09;101686.34;4850288;29;20033;-61
2021/10/19 10:06:18;;;;;;;12.30;6.25;;;;;;;16.52;48.82;101668.47;4850535;29;20018;-56
2021/10/19 10:08:45;;;;;;;12.63;5.78;;;;;;;16.56;48.50;101664.41;4850480;29;20079;-55
2021/10/19 10:11:11;;;;;;;8.10;5.68;;;;;;;16.56;47.42;101677.78;4850181;29;20033;-53
2021/10/19 10:13:36;;;;;;;9.63;5.65;;;;;;;16.55;47.60;101667.66;4850173;29;20026;-60
2021/10/19 10:16:09;;;;;;;8.93;5.43;;;;;;;16.54;47.39;101663.19;4850142;29;20037;-56
2021/10/19 10:18:35;;;;;;;12.93;5.82;;;;;;;16.58;47.79;101661.13;4849509;29;20506;-56
2021/10/19 10:21:14;;;;;;;9.30;6.28;;;;;;;16.60;47.09;101659.50;4850279;29;20113;-55
2021/10/19 10:23:42;;;;;;;11.60;7.28;;;;;;;16.60;46.70;101667.22;4849935;29;20030;-50
2021/10/19 10:26:11;;;;;;;8.07;5.97;;;;;;;16.61;47.58;101660.31;4850277;29;20478;-53
2021/10/19 10:28:36;;;;;;;8.60;5.47;;;;;;;16.63;47.52;101650.16;4849917;29;20083;-56
2021/10/19 10:31:05;;;;;;;13.32;6.63;;;;;;;16.69;47.25;101647.72;4846481;29;20453;-54
2021/10/19 10:33:32;;;;;;;8.20;5.47;;;;;;;16.75;47.60;101646.06;4847146;29;20379;-57
2021/10/19 10:36:04;;;;;;;7.55;5.63;;;;;;;16.82;47.21;101648.84;4847026;29;20117;-59
2021/10/19 10:38:29;;;;;;;12.45;6.50;;;;;;;16.86;46.78;101649.66;4847021;29;20376;-54
2021/10/19 10:41:07;;;;;;;13.70;7.47;;;;;;;16.88;46.90;101644.34;4846804;29;20144;-56
2021/10/19 10:43:35;;;;;;;9.10;6.88;;;;;;;16.86;46.28;101624.09;4847005;29;20029;-56
2021/10/19 10:46:16;;;;;;;10.38;6.22;;;;;;;16.86;47.43;101623.28;4846686;29;20036;-59
2021/10/19 10:48:42;;;;;;;17.93;10.30;;;;;;;16.90;47.95;101619.19;4846998;29;20403;-56
2021/10/19 10:51:10;;;;;;;13.50;7.85;;;;;;;16.99;47.06;101624.41;4846659;29;20059;-55
2021/10/19 10:53:43;;;;;;;11.60;7.35;;;;;;;17.05;47.31;101613.41;4846867;29;20315;-58
2021/10/19 10:56:10;;;;;;;8.57;5.85;;;;;;;17.14;46.98;101608.03;4847071;29;20082;-55
2021/10/19 10:58:37;;;;;;;11.88;7.45;;;;;;;17.19;46.42;101604.75;4846753;29;20021;-57
2021/10/19 11:01:27;;;;;;;9.75;6.63;;;;;;;17.19;45.74;101605.56;4846619;29;20120;-58
2021/10/19 11:04:05;;;;;;;6.38;4.90;;;;;;;17.21;45.80;101605.13;4846791;29;20037;-58
2021/10/19 11:06:31;;;;;;;6.82;4.25;;;;;;;17.25;46.60;101600.22;4846545;29;20022;-52
2021/10/19 11:08:59;;;;;;;9.75;4.28;;;;;;;17.29;45.34;101598.19;4846716;29;20033;-59
2021/10/19 11:11:26;;;;;;;8.63;4.32;;;;;;;17.30;45.47;101599.81;4846617;29;20460;-53
2021/10/19 11:14:00;;;;;;;8.20;4.65;;;;;;;17.25;45.30;101591.69;4846402;29;20037;-55
2021/10/19 11:16:43;;;;;;;8.30;4.60;;;;;;;17.23;46.03;101592.13;4845868;29;20037;-61